createdAt,value
2019-03-21T00:00:37.223Z,84.70
2019-03-21T00:03:07.646Z,84.80
2019-03-21T00:05:38.307Z,84.90
2019-03-21T00:08:10.764Z,84.80
2019-03-21T00:11:23.146Z,84.90
2019-03-21T00:13:54.805Z,85.00
2019-03-21T00:16:25.172Z,85.00
2019-03-21T00:18:55.662Z,84.70
2019-03-21T00:21:25.978Z,84.70
2019-03-21T00:23:56.402Z,84.70
2019-03-21T00:26:26.819Z,83.70
2019-03-21T00:28:57.134Z,84.20
2019-03-21T00:31:27.850Z,83.60
2019-03-21T00:33:58.326Z,83.50
2019-03-21T00:36:28.815Z,83.60
2019-03-21T00:38:59.417Z,84.10
2019-03-21T00:41:29.810Z,84.50
2019-03-21T00:44:00.589Z,84.40
2019-03-21T00:46:30.916Z,84.00
2019-03-21T00:49:01.258Z,84.10
2019-03-21T00:51:31.682Z,83.80
2019-03-21T00:54:01.985Z,83.80
2019-03-21T00:56:32.378Z,83.80
2019-03-21T00:59:03.116Z,84.10
2019-03-21T01:01:33.607Z,84.10
2019-03-21T01:04:04.070Z,84.30
2019-03-21T01:06:34.467Z,84.20
2019-03-21T01:09:07.752Z,84.10
2019-03-21T01:11:38.438Z,84.00
2019-03-21T01:14:08.761Z,83.90
2019-03-21T01:16:39.185Z,83.60
2019-03-21T01:19:09.571Z,83.70
2019-03-21T01:21:39.943Z,83.70
2019-03-21T01:24:10.343Z,83.60
2019-03-21T01:26:40.692Z,83.80
2019-03-21T01:29:11.171Z,83.70
2019-03-21T01:31:41.883Z,84.00
2019-03-21T01:34:12.259Z,84.10
2019-03-21T01:36:43.600Z,83.70
2019-03-21T01:39:14.005Z,83.80
2019-03-21T01:41:44.302Z,83.90
2019-03-21T01:44:15.108Z,84.10
2019-03-21T01:46:45.414Z,84.30
2019-03-21T01:49:16.155Z,83.80
2019-03-21T01:51:46.662Z,84.00
2019-03-21T01:54:17.130Z,84.30
2019-03-21T01:56:47.610Z,84.10
2019-03-21T01:59:18.034Z,84.10
2019-03-21T02:01:48.449Z,84.40
2019-03-21T02:04:18.869Z,84.60
2019-03-21T02:06:49.623Z,84.60
2019-03-21T02:09:20.008Z,84.50
2019-03-21T02:11:51.431Z,84.60
2019-03-21T02:14:21.731Z,84.40
2019-03-21T02:16:52.231Z,83.50
2019-03-21T02:19:23.179Z,83.60
2019-03-21T02:21:53.619Z,83.60
2019-03-21T02:24:24.019Z,83.70
2019-03-21T02:26:54.855Z,83.50
2019-03-21T02:29:25.150Z,83.80
2019-03-21T02:31:55.543Z,83.50
2019-03-21T02:34:25.967Z,83.10
2019-03-21T02:36:56.405Z,83.00
2019-03-21T02:39:26.822Z,82.80
2019-03-21T02:41:57.174Z,83.80
2019-03-21T02:44:28.000Z,83.60
2019-03-21T02:46:58.320Z,83.30
2019-03-21T02:49:28.981Z,83.10
2019-03-21T02:51:59.373Z,82.90
2019-03-21T02:54:29.701Z,82.50
2019-03-21T02:57:00.088Z,82.50
2019-03-21T02:59:30.496Z,82.70
2019-03-21T03:02:01.355Z,83.10
2019-03-21T03:04:31.916Z,82.90
2019-03-21T03:07:02.687Z,82.50
2019-03-21T03:09:34.010Z,82.70
2019-03-21T03:12:04.517Z,82.40
2019-03-21T03:14:35.013Z,81.70
2019-03-21T03:17:05.426Z,82.50
2019-03-21T03:19:35.911Z,81.50
2019-03-21T03:22:06.412Z,81.70
2019-03-21T03:24:37.976Z,81.60
2019-03-21T03:27:08.318Z,81.70
2019-03-21T03:29:38.619Z,81.70
2019-03-21T03:32:09.004Z,81.40
2019-03-21T03:34:39.487Z,81.90
2019-03-21T03:37:10.914Z,81.90
2019-03-21T03:39:41.235Z,82.70
2019-03-21T03:42:11.625Z,81.80
2019-03-21T03:44:42.289Z,82.70
2019-03-21T03:47:12.663Z,82.20
2019-03-21T03:49:43.363Z,81.80
2019-03-21T03:52:14.196Z,81.80
2019-03-21T03:54:44.714Z,82.30
2019-03-21T03:57:15.988Z,81.80
2019-03-21T03:59:46.347Z,81.60
2019-03-21T04:02:16.744Z,82.10
2019-03-21T04:04:47.220Z,82.20
2019-03-21T04:07:17.727Z,81.70
2019-03-21T04:09:48.157Z,81.40
2019-03-21T04:12:18.924Z,81.80
2019-03-21T04:14:49.633Z,82.30
2019-03-21T04:17:19.990Z,82.40
2019-03-21T04:19:50.284Z,82.70
2019-03-21T04:22:21.059Z,83.70
2019-03-21T04:24:51.475Z,82.50
2019-03-21T04:27:23.006Z,83.40
2019-03-21T04:29:53.529Z,82.30
2019-03-21T04:32:23.857Z,82.40
2019-03-21T04:34:54.303Z,82.40
2019-03-21T04:37:24.696Z,82.40
2019-03-21T04:39:55.096Z,82.30
2019-03-21T04:42:25.523Z,82.70
2019-03-21T04:44:56.338Z,83.00
2019-03-21T04:47:26.767Z,83.10
2019-03-21T04:49:57.166Z,83.80
2019-03-21T04:52:27.463Z,83.80
2019-03-21T04:54:57.831Z,83.60
2019-03-21T04:57:28.922Z,82.80
2019-03-21T04:59:59.362Z,83.40
2019-03-21T05:02:30.131Z,82.30
2019-03-21T05:05:00.542Z,82.60
2019-03-21T05:07:30.886Z,82.10
2019-03-21T05:10:01.343Z,82.50
2019-03-21T05:12:31.706Z,82.00
2019-03-21T05:15:02.892Z,81.90
2019-03-21T05:17:33.253Z,81.80
2019-03-21T05:20:04.146Z,82.30
2019-03-21T05:22:36.149Z,82.40
2019-03-21T05:25:08.374Z,82.30
2019-03-21T05:27:38.769Z,82.50
2019-03-21T05:30:12.888Z,82.50
2019-03-21T05:32:43.246Z,82.50
2019-03-21T05:35:13.599Z,82.50
2019-03-21T05:37:43.988Z,83.10
2019-03-21T05:40:15.991Z,82.70
2019-03-21T05:42:56.437Z,82.90
2019-03-21T05:45:27.387Z,82.90
2019-03-21T05:47:57.863Z,82.80
2019-03-21T05:50:28.532Z,83.40
2019-03-21T05:52:59.047Z,82.90
2019-03-21T05:55:29.411Z,83.40
2019-03-21T05:57:59.790Z,83.70
2019-03-21T06:00:34.758Z,83.30
2019-03-21T06:03:06.542Z,83.70
2019-03-21T06:05:37.176Z,83.70
2019-03-21T06:08:11.312Z,83.20
2019-03-21T06:10:42.807Z,83.50
2019-03-21T06:13:13.274Z,83.30
2019-03-21T06:15:43.571Z,83.60
2019-03-21T06:18:35.440Z,83.60
2019-03-21T06:21:19.639Z,83.70
2019-03-21T06:24:14.819Z,82.60
2019-03-21T06:27:14.031Z,82.90
2019-03-21T06:29:37.162Z,82.60
2019-03-21T06:32:07.704Z,83.00
2019-03-21T06:34:38.015Z,82.60
2019-03-21T06:37:08.402Z,83.10
2019-03-21T06:39:38.706Z,83.30
2019-03-21T06:42:09.256Z,83.60
2019-03-21T06:44:39.703Z,83.40
2019-03-21T06:47:10.059Z,83.60
2019-03-21T06:49:40.822Z,83.60
2019-03-21T06:52:11.637Z,83.50
2019-03-21T06:54:42.061Z,83.90
2019-03-21T06:57:12.604Z,83.40
2019-03-21T06:59:42.949Z,84.00
2019-03-21T07:02:13.435Z,83.60
2019-03-21T07:04:44.140Z,84.30
2019-03-21T07:07:14.478Z,83.80
2019-03-21T07:09:44.771Z,84.30
2019-03-21T07:12:15.267Z,83.70
2019-03-21T07:14:45.727Z,84.10
2019-03-21T07:17:16.201Z,84.00
2019-03-21T07:19:47.075Z,83.30
2019-03-21T07:22:17.365Z,83.20
2019-03-21T07:24:47.773Z,83.30
2019-03-21T07:27:19.163Z,83.60
2019-03-21T07:29:49.783Z,82.90
2019-03-21T07:32:20.770Z,84.20
2019-03-21T07:34:51.402Z,82.70
2019-03-21T07:37:21.882Z,82.80
2019-03-21T07:39:52.658Z,82.50
2019-03-21T07:42:22.993Z,82.40
2019-03-21T07:44:53.922Z,82.10
2019-03-21T07:47:24.310Z,82.20
2019-03-21T07:49:54.608Z,81.80
2019-03-21T07:52:24.984Z,81.90
2019-03-21T07:54:55.553Z,82.10
2019-03-21T07:57:26.256Z,82.40
2019-03-21T07:59:56.560Z,81.70
2019-03-21T08:02:27.012Z,80.90
2019-03-21T08:04:57.483Z,80.20
2019-03-21T08:07:27.824Z,80.80
2019-03-21T08:09:58.251Z,80.60
2019-03-21T08:12:28.970Z,80.60
2019-03-21T08:14:59.558Z,79.20
2019-03-21T08:17:30.891Z,78.20
2019-03-21T08:20:13.642Z,78.30
2019-03-21T08:22:44.083Z,78.90
2019-03-21T08:25:15.083Z,77.60
2019-03-21T08:27:45.548Z,75.90
2019-03-21T08:30:34.366Z,76.60
2019-03-21T08:33:05.411Z,76.10
2019-03-21T08:35:35.839Z,76.30
2019-03-21T08:38:06.302Z,76.00
2019-03-21T08:40:37.431Z,75.90
2019-03-21T08:43:08.231Z,74.10
2019-03-21T08:45:39.709Z,75.10
2019-03-21T08:48:10.028Z,73.00
2019-03-21T08:50:40.365Z,72.30
2019-03-21T08:53:11.324Z,71.80
2019-03-21T08:55:41.754Z,69.40
2019-03-21T08:58:12.023Z,70.10
2019-03-21T09:00:42.350Z,69.70
2019-03-21T09:03:12.759Z,70.90
2019-03-21T09:05:43.174Z,70.60
2019-03-21T09:08:13.514Z,70.40
2019-03-21T09:10:44.190Z,70.50
2019-03-21T09:13:15.004Z,69.00
2019-03-21T09:15:45.588Z,68.40
2019-03-21T09:18:15.925Z,68.20
2019-03-21T09:20:46.423Z,67.90
2019-03-21T09:23:16.939Z,68.80
2019-03-21T09:25:47.407Z,68.10
2019-03-21T09:28:17.913Z,66.40
2019-03-21T09:30:50.625Z,64.60
2019-03-21T09:33:21.317Z,66.50
2019-03-21T09:35:51.787Z,65.80
2019-03-21T09:38:22.288Z,64.70
2019-03-21T09:40:52.589Z,65.80
2019-03-21T09:43:22.974Z,65.90
2019-03-21T09:45:53.448Z,66.30
2019-03-21T09:48:23.858Z,67.60
2019-03-21T09:50:54.366Z,67.40
2019-03-21T09:53:24.829Z,68.00
2019-03-21T09:55:55.601Z,66.80
2019-03-21T09:58:25.994Z,66.90
2019-03-21T10:00:56.443Z,65.70
2019-03-21T10:03:26.761Z,65.60
2019-03-21T10:05:57.096Z,66.10
2019-03-21T10:08:28.172Z,65.30
2019-03-21T10:10:58.814Z,65.90
2019-03-21T10:13:29.210Z,65.10
2019-03-21T10:15:59.755Z,64.70
2019-03-21T10:18:30.200Z,66.10
2019-03-21T10:21:01.030Z,64.40
2019-03-21T10:23:31.757Z,61.80
2019-03-21T10:26:02.463Z,62.30
2019-03-21T10:28:33.855Z,64.50
2019-03-21T10:31:04.342Z,64.30
2019-03-21T10:33:34.784Z,64.00
2019-03-21T10:36:05.263Z,65.10
2019-03-21T10:38:35.671Z,61.40
2019-03-21T10:41:07.091Z,63.60
2019-03-21T10:43:37.479Z,63.60
2019-03-21T10:46:07.891Z,63.80
2019-03-21T10:48:38.168Z,63.20
2019-03-21T10:51:08.498Z,62.60
2019-03-21T10:53:39.213Z,62.30
2019-03-21T10:56:10.011Z,62.80
2019-03-21T10:58:40.570Z,63.70
2019-03-21T11:01:10.936Z,61.50
2019-03-21T11:03:41.741Z,63.10
2019-03-21T11:06:12.162Z,62.70
2019-03-21T11:08:42.942Z,61.70
2019-03-21T11:11:14.589Z,60.20
2019-03-21T11:13:45.096Z,59.10
2019-03-21T11:16:15.544Z,60.80
2019-03-21T11:18:46.604Z,60.00
2019-03-21T11:21:17.011Z,61.50
2019-03-21T11:23:47.515Z,59.60
2019-03-21T11:26:17.963Z,61.10
2019-03-21T11:28:48.276Z,62.30
2019-03-21T11:31:19.013Z,61.10
2019-03-21T11:33:49.507Z,60.90
2019-03-21T11:36:20.338Z,59.50
2019-03-21T11:38:50.779Z,60.20
2019-03-21T11:41:21.063Z,58.60
2019-03-21T11:43:51.480Z,56.10
2019-03-21T11:46:21.897Z,57.90
2019-03-21T11:48:52.443Z,56.80
2019-03-21T11:51:22.809Z,56.90
2019-03-21T11:53:53.199Z,59.60
2019-03-21T11:56:23.976Z,58.40
2019-03-21T11:58:54.468Z,57.70
2019-03-21T12:01:24.751Z,55.70
2019-03-21T12:03:55.523Z,55.60
2019-03-21T12:06:26.011Z,55.70
2019-03-21T12:08:56.558Z,53.60
2019-03-21T12:11:27.043Z,53.10
2019-03-21T12:13:57.336Z,56.10
2019-03-21T12:16:27.671Z,54.80
2019-03-21T12:18:58.007Z,54.80
2019-03-21T12:21:28.288Z,51.60
2019-03-21T12:23:58.704Z,57.20
2019-03-21T12:26:29.323Z,55.30
2019-03-21T12:29:00.069Z,56.70
2019-03-21T12:31:30.499Z,55.50
2019-03-21T12:34:00.767Z,55.20
2019-03-21T12:36:31.095Z,54.30
2019-03-21T12:39:02.168Z,57.60
2019-03-21T12:41:32.667Z,55.90
2019-03-21T12:44:03.049Z,56.30
2019-03-21T12:46:33.792Z,55.10
2019-03-21T12:49:04.215Z,57.00
2019-03-21T12:51:34.568Z,55.30
2019-03-21T12:54:05.507Z,53.10
2019-03-21T12:56:35.972Z,56.10
2019-03-21T12:59:06.324Z,53.00
2019-03-21T13:01:36.764Z,54.90
2019-03-21T13:04:07.377Z,53.80
2019-03-21T13:06:37.882Z,53.60
2019-03-21T13:09:08.766Z,54.00
2019-03-21T13:11:39.260Z,53.40
2019-03-21T13:14:09.652Z,54.80
2019-03-21T13:16:40.127Z,53.30
2019-03-21T13:19:10.521Z,50.90
2019-03-21T13:21:40.875Z,48.90
2019-03-21T13:24:11.273Z,47.20
2019-03-21T13:26:41.687Z,48.40
2019-03-21T13:29:12.146Z,50.00
2019-03-21T13:31:42.523Z,51.30
2019-03-21T13:34:12.954Z,50.30
2019-03-21T13:36:43.470Z,48.00
2019-03-21T13:39:13.913Z,46.40
2019-03-21T13:41:44.244Z,45.70
2019-03-21T13:44:15.247Z,46.10
2019-03-21T13:46:45.596Z,46.10
2019-03-21T13:49:16.223Z,46.20
2019-03-21T13:51:46.486Z,45.80
2019-03-21T13:54:17.005Z,49.80
2019-03-21T13:56:47.811Z,50.00
2019-03-21T13:59:18.517Z,51.30
2019-03-21T14:01:49.023Z,50.40
2019-03-21T14:04:19.506Z,48.10
2019-03-21T14:06:50.083Z,47.60
2019-03-21T14:09:20.494Z,48.20
2019-03-21T14:11:50.843Z,49.30
2019-03-21T14:14:21.134Z,48.70
2019-03-21T14:16:51.611Z,50.70
2019-03-21T14:19:22.028Z,49.90
2019-03-21T14:21:52.411Z,48.60
2019-03-21T14:24:22.799Z,47.80
2019-03-21T14:26:53.098Z,50.00
2019-03-21T14:29:23.520Z,49.30
2019-03-21T14:31:54.014Z,47.90
2019-03-21T14:34:25.394Z,48.90
2019-03-21T14:36:55.714Z,49.40
2019-03-21T14:39:26.138Z,48.80
2019-03-21T14:41:56.567Z,47.90
2019-03-21T14:44:27.340Z,48.50
2019-03-21T14:46:57.723Z,50.10
2019-03-21T14:49:28.265Z,50.20
2019-03-21T14:51:59.043Z,49.50
2019-03-21T14:54:29.431Z,49.80
2019-03-21T14:56:59.834Z,51.50
2019-03-21T14:59:30.235Z,50.60
2019-03-21T15:02:00.695Z,50.30
2019-03-21T15:04:31.494Z,49.30
2019-03-21T15:07:02.110Z,49.20
2019-03-21T15:09:32.491Z,51.10
2019-03-21T15:12:03.015Z,50.50
2019-03-21T15:14:33.402Z,48.50
2019-03-21T15:17:03.877Z,49.20
2019-03-21T15:19:34.359Z,49.90
2019-03-21T15:22:04.872Z,52.60
2019-03-21T15:24:35.339Z,53.40
2019-03-21T15:27:05.726Z,53.20
2019-03-21T15:29:36.153Z,51.90
2019-03-21T15:32:06.658Z,51.60
2019-03-21T15:34:37.036Z,52.20
2019-03-21T15:37:07.782Z,50.90
2019-03-21T15:39:38.578Z,51.50
2019-03-21T15:42:09.078Z,53.50
2019-03-21T15:44:40.019Z,52.40
2019-03-21T15:47:10.510Z,52.40
2019-03-21T15:49:41.146Z,54.20
2019-03-21T15:52:11.598Z,53.60
2019-03-21T15:54:42.423Z,54.50
2019-03-21T15:57:12.968Z,54.30
2019-03-21T15:59:44.798Z,53.30
2019-03-21T16:02:15.175Z,53.10
2019-03-21T16:04:45.625Z,52.70
2019-03-21T16:07:15.918Z,51.10
2019-03-21T16:09:46.514Z,51.90
2019-03-21T16:12:16.879Z,54.40
2019-03-21T16:14:49.205Z,53.60
2019-03-21T16:17:19.284Z,54.90
2019-03-21T16:19:49.660Z,54.00
2019-03-21T16:22:20.103Z,54.00
2019-03-21T16:24:50.583Z,55.90
2019-03-21T16:27:21.340Z,55.80
2019-03-21T16:29:51.747Z,55.80
2019-03-21T16:32:22.484Z,55.30
2019-03-21T16:34:53.271Z,55.20
2019-03-21T16:37:23.751Z,56.60
2019-03-21T16:39:54.492Z,57.30
2019-03-21T16:42:24.830Z,56.80
2019-03-21T16:44:55.175Z,58.90
2019-03-21T16:47:25.643Z,59.00
2019-03-21T16:49:56.071Z,57.00
2019-03-21T16:52:26.955Z,58.00
2019-03-21T16:54:57.381Z,58.00
2019-03-21T16:57:27.779Z,59.40
2019-03-21T16:59:59.276Z,59.50
2019-03-21T17:02:29.728Z,60.50
2019-03-21T17:05:00.572Z,61.10
2019-03-21T17:07:31.004Z,61.60
2019-03-21T17:10:01.440Z,61.70
2019-03-21T17:12:32.160Z,61.50
2019-03-21T17:15:03.299Z,61.00
2019-03-21T17:17:33.907Z,61.60
2019-03-21T17:20:05.000Z,62.60
2019-03-21T17:22:35.480Z,62.30
2019-03-21T17:25:06.267Z,63.20
2019-03-21T17:27:37.012Z,63.60
2019-03-21T17:30:08.192Z,64.80
2019-03-21T17:32:38.668Z,64.30
2019-03-21T17:35:09.187Z,64.80
2019-03-21T17:37:40.066Z,63.80
2019-03-21T17:40:12.202Z,64.70
2019-03-21T17:42:43.085Z,65.90
2019-03-21T17:45:15.209Z,65.50
2019-03-21T17:47:45.654Z,65.80
2019-03-21T17:50:16.205Z,65.90
2019-03-21T17:52:46.675Z,66.00
2019-03-21T17:55:17.479Z,66.00
2019-03-21T17:57:47.955Z,66.00
2019-03-21T18:00:20.854Z,67.20
2019-03-21T18:02:51.381Z,67.10
2019-03-21T18:05:22.204Z,67.10
2019-03-21T18:07:52.684Z,67.40
2019-03-21T18:10:28.163Z,67.50
2019-03-21T18:13:00.297Z,67.40
2019-03-21T18:15:31.321Z,67.90
2019-03-21T18:18:02.191Z,68.30
2019-03-21T18:20:33.591Z,68.30
2019-03-21T18:23:04.501Z,69.10
2019-03-21T18:25:35.068Z,68.80
2019-03-21T18:28:08.423Z,69.00
2019-03-21T18:30:37.580Z,69.70
2019-03-21T18:33:08.324Z,69.40
2019-03-21T18:35:38.875Z,69.40
2019-03-21T18:38:09.304Z,69.50
2019-03-21T18:40:39.606Z,69.00
2019-03-21T18:43:10.037Z,69.40
2019-03-21T18:45:41.622Z,70.30
2019-03-21T18:48:11.962Z,69.40
2019-03-21T18:50:42.701Z,69.80
2019-03-21T18:53:13.075Z,70.80
2019-03-21T18:55:43.638Z,71.50
2019-03-21T18:58:14.080Z,72.20
2019-03-21T19:00:44.776Z,72.00
2019-03-21T19:03:15.456Z,72.10
2019-03-21T19:05:46.193Z,72.40
2019-03-21T19:08:16.832Z,72.70
2019-03-21T19:10:47.660Z,73.00
2019-03-21T19:13:18.076Z,73.30
2019-03-21T19:15:48.519Z,73.30
2019-03-21T19:18:19.255Z,74.00
2019-03-21T19:20:49.715Z,74.00
2019-03-21T19:23:20.213Z,74.30
2019-03-21T19:25:50.943Z,74.40
2019-03-21T19:28:21.579Z,74.80
2019-03-21T19:30:53.094Z,74.60
2019-03-21T19:33:23.900Z,75.10
2019-03-21T19:35:54.325Z,75.30
2019-03-21T19:38:24.601Z,75.50
2019-03-21T19:40:55.151Z,76.40
2019-03-21T19:43:25.702Z,76.60
2019-03-21T19:45:56.398Z,76.30
2019-03-21T19:48:26.762Z,77.40
2019-03-21T19:50:57.097Z,77.50
2019-03-21T19:53:28.889Z,77.10
2019-03-21T19:56:08.476Z,77.40
2019-03-21T19:58:32.326Z,77.60
2019-03-21T20:01:04.238Z,77.10
2019-03-21T20:03:35.129Z,77.10
2019-03-21T20:06:05.672Z,77.80
2019-03-21T20:08:36.112Z,77.50
2019-03-21T20:11:06.397Z,77.30
2019-03-21T20:13:36.910Z,77.50
2019-03-21T20:16:08.399Z,77.50
2019-03-21T20:18:39.475Z,78.10
2019-03-21T20:21:09.828Z,78.10
2019-03-21T20:23:40.542Z,77.80
2019-03-21T20:26:10.960Z,78.30
2019-03-21T20:28:41.413Z,78.40
2019-03-21T20:31:12.506Z,79.10
2019-03-21T20:33:43.171Z,79.40
2019-03-21T20:36:13.635Z,79.90
2019-03-21T20:38:44.087Z,79.80
2019-03-21T20:41:14.591Z,80.00
2019-03-21T20:43:44.994Z,80.50
2019-03-21T20:46:15.435Z,80.10
2019-03-21T20:48:43.970Z,80.20
2019-03-21T20:51:14.425Z,80.30
2019-03-21T20:53:44.822Z,81.10
2019-03-21T20:56:16.463Z,81.50
2019-03-21T20:58:47.249Z,81.30
2019-03-21T21:01:18.056Z,81.70
2019-03-21T21:03:48.898Z,82.30
2019-03-21T21:06:19.707Z,82.70
2019-03-21T21:08:50.197Z,83.70
2019-03-21T21:11:20.695Z,84.10
2019-03-21T21:13:51.161Z,84.00
2019-03-21T21:16:21.547Z,84.30
2019-03-21T21:18:52.040Z,84.50
2019-03-21T21:21:22.708Z,84.40
2019-03-21T21:23:53.209Z,84.40
2019-03-21T21:26:23.578Z,84.90
2019-03-21T21:28:54.458Z,85.00
2019-03-21T21:31:24.984Z,84.50
2019-03-21T21:33:55.677Z,83.60
2019-03-21T21:36:26.368Z,82.60
2019-03-21T21:38:57.015Z,83.80
2019-03-21T21:41:27.437Z,85.10
2019-03-21T21:43:57.966Z,86.50
2019-03-21T21:46:28.384Z,86.10
2019-03-21T21:48:58.844Z,84.90
2019-03-21T21:51:29.196Z,85.40
2019-03-21T21:53:59.787Z,86.20
2019-03-21T21:56:31.240Z,85.20
2019-03-21T21:59:01.955Z,85.50
2019-03-21T22:01:32.694Z,88.00
2019-03-21T22:04:04.886Z,86.40
2019-03-21T22:06:36.169Z,85.10
2019-03-21T22:09:08.620Z,84.70
2019-03-21T22:11:39.338Z,83.70
2019-03-21T22:14:10.047Z,83.00
2019-03-21T22:16:40.413Z,83.40
2019-03-21T22:19:11.203Z,83.70
2019-03-21T22:21:41.921Z,84.10
2019-03-21T22:24:13.289Z,83.60
2019-03-21T22:26:43.713Z,83.60
2019-03-21T22:29:14.282Z,83.10
2019-03-21T22:31:45.124Z,83.00
2019-03-21T22:34:15.492Z,83.80
2019-03-21T22:36:49.676Z,85.90
2019-03-21T22:39:17.879Z,86.20
2019-03-21T22:41:48.214Z,86.40
2019-03-21T22:44:18.689Z,85.40
2019-03-21T22:46:49.327Z,84.60
2019-03-21T22:49:20.155Z,83.70
2019-03-21T22:51:50.959Z,83.20
2019-03-21T22:54:21.339Z,83.40
2019-03-21T22:56:51.654Z,85.00
2019-03-21T22:59:22.016Z,86.00
2019-03-21T23:01:52.395Z,86.80
2019-03-21T23:04:22.829Z,86.20
2019-03-21T23:06:53.379Z,86.00
2019-03-21T23:09:24.721Z,85.70
2019-03-21T23:11:55.158Z,85.40
2019-03-21T23:14:27.264Z,86.30
2019-03-21T23:16:57.717Z,85.00
2019-03-21T23:19:28.330Z,84.60
2019-03-21T23:21:58.857Z,84.20
2019-03-21T23:24:29.628Z,84.20
2019-03-21T23:27:00.187Z,85.10
2019-03-21T23:29:30.654Z,84.90
2019-03-21T23:32:01.075Z,85.30
2019-03-21T23:34:31.430Z,85.30
2019-03-21T23:37:01.851Z,85.80
2019-03-21T23:39:32.259Z,85.10
2019-03-21T23:42:02.703Z,85.00
2019-03-21T23:44:33.061Z,83.70
2019-03-21T23:47:03.758Z,84.30
2019-03-21T23:49:34.184Z,85.70
2019-03-21T23:52:04.601Z,86.80
2019-03-21T23:54:35.004Z,86.60
2019-03-21T23:57:05.771Z,86.00
2019-03-21T23:59:36.243Z,86.00
